Airport View

Enter AWOS ICAO identifier for current METAR.

ex. KFNL

KSDA 112150Z AUTO 12010G15KT 10SM CLR 02/M05 A3031 RMK AO2

11 Dec 2019 21:53

Frequency: 125.525

Phone: 712-246-4021

Other Area AWOS: KRDK - KICL - KAFK - KPMV

TAF KOFF 111800Z 1118/1224 09010KT 9999 FEW250 QNH3040INS BECMG 1205/1206 16010KT 9999 FEW250 QNH3030INS BECMG 1209/1210 18010G15KT 9999 BKN020 620204 QNH3012INS TXM01/1218Z TNM04/1122Z